Time;durP1;ratioP1;P1;durP2;ratioP2;P2;SDS_P1;SDS_P2;PMS_P1;PMS_P2;Temp;Humidity;BMP_temperature;BMP_pressure;BME280_temperature;BME280_humidity;BME280_pressure;Samples;Min_cycle;Max_cycle;Signal;HPM_P1;HPM_P2
2022/12/16 00:00:08;;;;;;;34.57;24.80;;;6.80;99.50;;;;;;5065097;28;20653;-65
2022/12/16 00:02:35;;;;;;;34.57;23.50;;;6.80;99.50;;;;;;5062148;28;20294;-65
2022/12/16 00:05:03;;;;;;;32.00;22.37;;;6.80;99.50;;;;;;5064413;28;20209;-65
2022/12/16 00:07:30;;;;;;;30.67;22.90;;;6.80;99.50;;;;;;5066217;28;20231;-65
2022/12/16 00:09:57;;;;;;;31.17;22.47;;;6.80;99.40;;;;;;5062540;28;20198;-65
2022/12/16 00:12:24;;;;;;;31.13;22.67;;;6.70;99.30;;;;;;5056098;28;20570;-65
2022/12/16 00:14:51;;;;;;;32.30;22.50;;;6.70;99.40;;;;;;5065029;28;20533;-65
2022/12/16 00:17:20;;;;;;;39.70;24.13;;;6.70;99.40;;;;;;5066696;28;20276;-65
2022/12/16 00:19:47;;;;;;;37.07;23.97;;;6.70;99.40;;;;;;5070734;28;20356;-65
2022/12/16 00:22:14;;;;;;;33.00;24.17;;;6.70;99.40;;;;;;5066498;28;20665;-65
2022/12/16 00:24:41;;;;;;;32.93;23.47;;;6.70;99.40;;;;;;5055740;28;20648;-65
2022/12/16 00:27:08;;;;;;;31.37;22.20;;;6.70;99.40;;;;;;5072532;28;20195;-65
2022/12/16 00:29:35;;;;;;;30.00;22.10;;;6.70;99.40;;;;;;5056601;28;20233;-65
2022/12/16 00:32:02;;;;;;;26.90;19.87;;;6.70;99.40;;;;;;5039051;28;20697;-65
2022/12/16 00:34:30;;;;;;;28.87;20.33;;;6.70;99.30;;;;;;5065411;28;20198;-65
2022/12/16 00:36:57;;;;;;;28.63;20.70;;;6.70;99.30;;;;;;5064923;28;20202;-65
2022/12/16 00:39:24;;;;;;;28.17;20.50;;;6.60;99.20;;;;;;5063889;28;20275;-65
2022/12/16 00:41:51;;;;;;;27.00;20.50;;;6.60;99.20;;;;;;5065193;28;20568;-65
2022/12/16 00:44:18;;;;;;;31.80;21.73;;;6.60;99.30;;;;;;5069910;28;20524;-65
2022/12/16 00:46:45;;;;;;;25.17;20.37;;;6.60;99.30;;;;;;5064693;28;20213;-65
2022/12/16 00:49:12;;;;;;;29.70;20.33;;;6.60;99.30;;;;;;5058387;28;20532;-65
2022/12/16 00:51:39;;;;;;;27.93;20.17;;;6.60;99.30;;;;;;5065094;28;20279;-65
2022/12/16 00:54:06;;;;;;;24.70;19.37;;;6.60;99.30;;;;;;5064567;28;20267;-65
2022/12/16 00:56:33;;;;;;;24.83;19.10;;;6.60;99.30;;;;;;5068516;28;20540;-65
2022/12/16 00:59:00;;;;;;;25.80;19.17;;;6.60;99.30;;;;;;5051690;28;20583;-65
2022/12/16 01:01:27;;;;;;;21.27;18.07;;;6.60;99.30;;;;;;5041304;28;20238;-65
2022/12/16 01:03:56;;;;;;;23.13;17.40;;;6.60;99.30;;;;;;5045500;28;20286;-65
2022/12/16 01:06:24;;;;;;;24.73;18.90;;;6.60;99.30;;;;;;5040020;28;20198;-65
2022/12/16 01:08:51;;;;;;;23.33;19.47;;;6.60;99.30;;;;;;5050624;28;20256;-65
2022/12/16 01:11:18;;;;;;;25.10;19.97;;;6.60;99.30;;;;;;5047278;28;20653;-65
2022/12/16 01:13:50;;;;;;;29.63;20.13;;;6.60;99.30;;;;;;5046001;28;20203;-65
2022/12/16 01:16:18;;;;;;;28.27;20.87;;;6.60;99.30;;;;;;5045590;28;20548;-65
2022/12/16 01:18:45;;;;;;;24.97;19.13;;;6.60;99.30;;;;;;5043640;28;20203;-65
2022/12/16 01:21:14;;;;;;;24.17;18.87;;;6.60;99.30;;;;;;5043276;28;20205;-65
2022/12/16 01:23:41;;;;;;;25.47;20.00;;;6.60;99.30;;;;;;5044491;28;20544;-65
2022/12/16 01:26:13;;;;;;;25.80;19.57;;;6.60;99.20;;;;;;5040957;28;20230;-65
2022/12/16 01:28:40;;;;;;;25.70;18.80;;;6.60;99.20;;;;;;5046634;28;20205;-65
2022/12/16 01:31:08;;;;;;;24.70;17.27;;;6.60;99.20;;;;;;5047392;28;20637;-65
2022/12/16 01:33:35;;;;;;;23.43;17.57;;;6.60;99.20;;;;;;5046525;28;20221;-65
2022/12/16 01:36:05;;;;;;;21.90;18.03;;;6.50;99.10;;;;;;5051381;28;20229;-65
2022/12/16 01:38:33;;;;;;;21.57;17.50;;;6.50;99.20;;;;;;5041546;28;20195;-65
2022/12/16 01:41:01;;;;;;;24.90;17.93;;;6.50;99.20;;;;;;5044367;28;20219;-65
2022/12/16 01:43:33;;;;;;;19.60;15.67;;;6.50;99.20;;;;;;5040099;28;20568;-65
2022/12/16 01:46:12;;;;;;;23.93;16.23;;;6.50;99.30;;;;;;5044647;28;20260;-65
2022/12/16 01:48:59;;;;;;;20.80;15.27;;;6.50;99.30;;;;;;5056761;28;20210;-65
2022/12/16 01:51:36;;;;;;;23.37;15.43;;;6.50;99.30;;;;;;5043613;28;20323;-65
2022/12/16 01:54:20;;;;;;;19.63;15.70;;;6.50;99.20;;;;;;5043572;28;20210;-65
2022/12/16 01:56:53;;;;;;;19.70;16.40;;;6.50;99.20;;;;;;5042855;28;20290;-65
2022/12/16 01:59:24;;;;;;;20.63;16.10;;;6.40;99.20;;;;;;5040332;28;20218;-65
2022/12/16 02:01:51;;;;;;;22.33;17.30;;;6.40;99.20;;;;;;5060871;28;20647;-65
2022/12/16 02:04:19;;;;;;;23.67;16.97;;;6.40;99.30;;;;;;5064162;28;20212;-65
2022/12/16 02:06:46;;;;;;;27.90;18.73;;;6.40;99.30;;;;;;5063883;28;20199;-64
2022/12/16 02:09:15;;;;;;;27.77;19.63;;;6.50;99.40;;;;;;5063867;28;20202;-65
2022/12/16 02:11:51;;;;;;;26.43;20.60;;;6.50;99.40;;;;;;5063023;28;20534;-65
2022/12/16 02:14:21;;;;;;;31.27;21.90;;;6.50;99.30;;;;;;5063046;28;20202;-65
2022/12/16 02:17:18;;;;;;;35.37;24.27;;;6.50;99.30;;;;;;5067465;28;20260;-65
2022/12/16 02:20:03;;;;;;;38.90;24.53;;;6.50;99.30;;;;;;5068404;28;20207;-65
2022/12/16 02:22:48;;;;;;;35.53;23.90;;;6.40;99.20;;;;;;5064523;28;20194;-65
2022/12/16 02:25:39;;;;;;;35.17;24.10;;;6.40;99.20;;;;;;5062376;28;20327;-65
2022/12/16 02:28:30;;;;;;;34.97;22.60;;;6.50;99.30;;;;;;5061916;28;20198;-65
2022/12/16 02:31:34;;;;;;;33.27;22.57;;;6.50;99.30;;;;;;5056217;28;20202;-65
2022/12/16 02:34:12;;;;;;;30.17;21.37;;;6.50;99.20;;;;;;5062536;28;20632;-65
2022/12/16 02:37:24;;;;;;;30.43;22.53;;;6.40;99.20;;;;;;5060805;28;20520;-65
2022/12/16 02:40:00;;;;;;;31.10;21.97;;;6.50;99.20;;;;;;5036009;28;20214;-65
2022/12/16 02:42:44;;;;;;;34.27;21.43;;;6.40;99.20;;;;;;5062126;28;20198;-65
2022/12/16 02:45:23;;;;;;;34.20;21.47;;;6.40;99.20;;;;;;5062631;28;20194;-65
2022/12/16 02:47:50;;;;;;;28.97;20.40;;;6.40;99.20;;;;;;5061650;28;20198;-65
2022/12/16 02:50:22;;;;;;;29.93;19.53;;;6.40;99.20;;;;;;5060097;28;20194;-65
2022/12/16 02:52:51;;;;;;;29.33;20.37;;;6.40;99.20;;;;;;5065614;28;20652;-65
2022/12/16 02:55:20;;;;;;;27.87;20.43;;;6.40;99.20;;;;;;5065028;28;20200;-65
2022/12/16 02:58:09;;;;;;;28.20;20.03;;;6.40;99.10;;;;;;5062928;28;20199;-65
2022/12/16 03:01:18;;;;;;;28.23;19.40;;;6.40;99.10;;;;;;5047610;28;20238;-65
2022/12/16 03:03:53;;;;;;;28.33;18.47;;;6.40;99.10;;;;;;5065338;28;20248;-65
2022/12/16 03:06:22;;;;;;;27.83;18.50;;;6.40;99.10;;;;;;5058106;28;20527;-65
2022/12/16 03:08:53;;;;;;;25.27;18.33;;;6.30;99.10;;;;;;5064587;28;20206;-65
2022/12/16 03:11:20;;;;;;;22.20;16.87;;;6.30;99.10;;;;;;5060475;28;20577;-65
2022/12/16 03:13:51;;;;;;;24.07;16.83;;;6.30;99.10;;;;;;5063272;28;20202;-65
2022/12/16 03:16:23;;;;;;;19.43;16.67;;;6.30;99.10;;;;;;5051755;28;20209;-65
2022/12/16 03:18:54;;;;;;;23.10;16.23;;;6.30;99.00;;;;;;5063315;28;20568;-65
2022/12/16 03:21:24;;;;;;;20.23;15.43;;;6.30;99.00;;;;;;5058653;28;20279;-65
2022/12/16 03:23:59;;;;;;;19.70;15.30;;;6.30;99.00;;;;;;5066403;28;20205;-65
2022/12/16 03:26:53;;;;;;;19.53;15.40;;;6.30;99.00;;;;;;5063866;28;20189;-65
2022/12/16 03:29:35;;;;;;;27.07;17.33;;;6.30;99.00;;;;;;5064777;28;20193;-65
2022/12/16 03:32:46;;;;;;;24.70;16.17;;;6.30;99.00;;;;;;5059356;28;20197;-65
2022/12/16 03:35:22;;;;;;;19.50;14.77;;;6.30;99.00;;;;;;5065161;28;20556;-64
2022/12/16 03:37:54;;;;;;;19.00;14.90;;;6.30;98.90;;;;;;5062790;28;20562;-65
2022/12/16 03:40:23;;;;;;;19.33;14.57;;;6.30;98.90;;;;;;5055523;28;20598;-65
2022/12/16 03:42:52;;;;;;;18.63;14.13;;;6.30;98.90;;;;;;5061202;28;20248;-65
2022/12/16 03:45:24;;;;;;;20.13;13.43;;;6.30;98.80;;;;;;5060557;28;20213;-65
2022/12/16 03:47:55;;;;;;;15.60;11.93;;;6.30;98.80;;;;;;5065285;28;20288;-65
2022/12/16 03:50:28;;;;;;;17.87;13.17;;;6.30;98.80;;;;;;5048860;28;20237;-65
2022/12/16 03:52:55;;;;;;;19.70;12.67;;;6.30;98.80;;;;;;5062590;28;20213;-65
2022/12/16 03:55:23;;;;;;;15.93;12.63;;;6.30;98.80;;;;;;5060425;28;20221;-65
2022/12/16 03:57:50;;;;;;;15.73;11.97;;;6.30;98.80;;;;;;5042190;28;20660;-65
2022/12/16 04:00:18;;;;;;;14.37;11.70;;;6.30;98.70;;;;;;5058158;28;20230;-65
2022/12/16 04:02:46;;;;;;;12.87;11.50;;;6.30;98.70;;;;;;5060291;28;20201;-65
2022/12/16 04:05:14;;;;;;;13.77;11.23;;;6.20;98.70;;;;;;5063641;28;20212;-64
2022/12/16 04:07:41;;;;;;;15.23;12.47;;;6.30;98.60;;;;;;5064900;28;20539;-65
2022/12/16 04:10:08;;;;;;;16.13;11.83;;;6.20;98.60;;;;;;5048280;28;20683;-65
2022/12/16 04:29:27;;;;;;;15.60;10.63;;;6.20;98.50;;;;;;5062087;28;20220;-65
2022/12/16 04:31:54;;;;;;;13.87;11.30;;;6.20;98.40;;;;;;5056026;28;20206;-65
2022/12/16 04:34:24;;;;;;;12.77;10.87;;;6.20;98.40;;;;;;5058277;28;20214;-65
